sensor_id;sensor_type;location;lat;lon;timestamp;P1;durP1;ratioP1;P2;durP2;ratioP2
12306;SDS011;6216;51.146;7.008;2022-07-21T00:00:13;5.03;;;4.53;;
12306;SDS011;6216;51.146;7.008;2022-07-21T00:02:44;4.83;;;4.43;;
12306;SDS011;6216;51.146;7.008;2022-07-21T00:05:12;5.13;;;4.73;;
12306;SDS011;6216;51.146;7.008;2022-07-21T00:07:40;5.10;;;4.70;;
12306;SDS011;6216;51.146;7.008;2022-07-21T00:10:08;5.40;;;5.00;;
12306;SDS011;6216;51.146;7.008;2022-07-21T00:12:36;5.07;;;4.67;;
12306;SDS011;6216;51.146;7.008;2022-07-21T00:15:05;6.20;;;5.07;;
12306;SDS011;6216;51.146;7.008;2022-07-21T00:17:34;5.20;;;4.70;;
12306;SDS011;6216;51.146;7.008;2022-07-21T00:20:04;5.40;;;5.00;;
12306;SDS011;6216;51.146;7.008;2022-07-21T00:22:34;5.57;;;5.07;;
12306;SDS011;6216;51.146;7.008;2022-07-21T00:25:02;5.63;;;5.13;;
12306;SDS011;6216;51.146;7.008;2022-07-21T00:27:30;6.17;;;5.27;;
12306;SDS011;6216;51.146;7.008;2022-07-21T00:29:58;6.43;;;5.83;;
12306;SDS011;6216;51.146;7.008;2022-07-21T00:32:27;5.90;;;5.33;;
12306;SDS011;6216;51.146;7.008;2022-07-21T00:35:01;5.90;;;5.40;;
12306;SDS011;6216;51.146;7.008;2022-07-21T00:37:30;5.90;;;5.30;;
12306;SDS011;6216;51.146;7.008;2022-07-21T00:40:00;6.27;;;5.67;;
12306;SDS011;6216;51.146;7.008;2022-07-21T00:42:28;6.03;;;5.37;;
12306;SDS011;6216;51.146;7.008;2022-07-21T00:44:57;6.47;;;5.10;;
12306;SDS011;6216;51.146;7.008;2022-07-21T00:47:26;6.13;;;5.43;;
12306;SDS011;6216;51.146;7.008;2022-07-21T00:49:57;5.17;;;4.73;;
12306;SDS011;6216;51.146;7.008;2022-07-21T00:52:26;6.13;;;5.33;;
12306;SDS011;6216;51.146;7.008;2022-07-21T00:54:55;5.23;;;4.83;;
12306;SDS011;6216;51.146;7.008;2022-07-21T00:57:23;5.60;;;5.10;;
12306;SDS011;6216;51.146;7.008;2022-07-21T00:59:51;5.17;;;4.77;;
12306;SDS011;6216;51.146;7.008;2022-07-21T01:02:19;5.57;;;5.07;;
12306;SDS011;6216;51.146;7.008;2022-07-21T01:04:47;5.37;;;4.87;;
12306;SDS011;6216;51.146;7.008;2022-07-21T01:07:15;5.57;;;5.00;;
12306;SDS011;6216;51.146;7.008;2022-07-21T01:09:45;5.83;;;5.33;;
12306;SDS011;6216;51.146;7.008;2022-07-21T01:12:15;5.70;;;5.20;;
12306;SDS011;6216;51.146;7.008;2022-07-21T01:14:42;5.93;;;5.43;;
12306;SDS011;6216;51.146;7.008;2022-07-21T01:17:11;5.93;;;5.33;;
12306;SDS011;6216;51.146;7.008;2022-07-21T01:19:38;5.93;;;5.43;;
12306;SDS011;6216;51.146;7.008;2022-07-21T01:22:08;6.40;;;5.80;;
12306;SDS011;6216;51.146;7.008;2022-07-21T01:24:36;8.80;;;5.73;;
12306;SDS011;6216;51.146;7.008;2022-07-21T01:27:04;5.70;;;5.07;;
12306;SDS011;6216;51.146;7.008;2022-07-21T01:29:32;6.00;;;5.50;;
12306;SDS011;6216;51.146;7.008;2022-07-21T01:32:00;5.63;;;5.13;;
12306;SDS011;6216;51.146;7.008;2022-07-21T01:34:28;6.50;;;5.67;;
12306;SDS011;6216;51.146;7.008;2022-07-21T01:36:56;7.67;;;4.73;;
12306;SDS011;6216;51.146;7.008;2022-07-21T01:39:25;5.47;;;4.40;;
12306;SDS011;6216;51.146;7.008;2022-07-21T01:42:11;4.73;;;4.33;;
12306;SDS011;6216;51.146;7.008;2022-07-21T01:44:39;5.93;;;4.67;;
12306;SDS011;6216;51.146;7.008;2022-07-21T01:47:07;5.10;;;4.60;;
12306;SDS011;6216;51.146;7.008;2022-07-21T01:49:35;4.60;;;4.00;;
12306;SDS011;6216;51.146;7.008;2022-07-21T01:52:03;5.13;;;4.67;;
12306;SDS011;6216;51.146;7.008;2022-07-21T01:54:32;5.30;;;4.77;;
12306;SDS011;6216;51.146;7.008;2022-07-21T01:57:00;4.20;;;3.63;;
12306;SDS011;6216;51.146;7.008;2022-07-21T01:59:28;4.33;;;3.93;;
12306;SDS011;6216;51.146;7.008;2022-07-21T02:01:56;4.20;;;3.80;;
12306;SDS011;6216;51.146;7.008;2022-07-21T02:04:24;5.37;;;4.17;;
12306;SDS011;6216;51.146;7.008;2022-07-21T02:06:52;4.70;;;4.30;;
12306;SDS011;6216;51.146;7.008;2022-07-21T02:09:19;4.60;;;4.17;;
12306;SDS011;6216;51.146;7.008;2022-07-21T02:11:49;5.00;;;4.50;;
12306;SDS011;6216;51.146;7.008;2022-07-21T02:14:17;4.23;;;3.93;;
12306;SDS011;6216;51.146;7.008;2022-07-21T02:16:44;4.20;;;3.80;;
12306;SDS011;6216;51.146;7.008;2022-07-21T02:19:13;6.57;;;4.40;;
12306;SDS011;6216;51.146;7.008;2022-07-21T02:21:41;5.80;;;4.80;;
12306;SDS011;6216;51.146;7.008;2022-07-21T02:24:09;5.20;;;4.80;;
12306;SDS011;6216;51.146;7.008;2022-07-21T02:26:37;5.17;;;4.77;;
12306;SDS011;6216;51.146;7.008;2022-07-21T02:29:06;5.37;;;4.93;;
12306;SDS011;6216;51.146;7.008;2022-07-21T02:31:34;5.40;;;4.90;;
12306;SDS011;6216;51.146;7.008;2022-07-21T02:34:02;5.67;;;4.77;;
12306;SDS011;6216;51.146;7.008;2022-07-21T02:36:30;5.87;;;5.37;;
12306;SDS011;6216;51.146;7.008;2022-07-21T02:38:57;5.60;;;5.20;;
12306;SDS011;6216;51.146;7.008;2022-07-21T02:41:25;5.67;;;5.27;;
12306;SDS011;6216;51.146;7.008;2022-07-21T02:43:53;5.83;;;5.33;;
12306;SDS011;6216;51.146;7.008;2022-07-21T02:46:22;5.63;;;5.23;;
12306;SDS011;6216;51.146;7.008;2022-07-21T02:48:50;6.37;;;5.77;;
12306;SDS011;6216;51.146;7.008;2022-07-21T02:51:19;6.40;;;5.13;;
12306;SDS011;6216;51.146;7.008;2022-07-21T02:53:47;6.00;;;5.40;;
12306;SDS011;6216;51.146;7.008;2022-07-21T02:56:15;6.20;;;5.70;;
12306;SDS011;6216;51.146;7.008;2022-07-21T02:58:43;6.43;;;5.90;;
12306;SDS011;6216;51.146;7.008;2022-07-21T03:01:10;6.20;;;5.60;;
12306;SDS011;6216;51.146;7.008;2022-07-21T03:03:40;6.93;;;6.33;;
12306;SDS011;6216;51.146;7.008;2022-07-21T03:06:08;6.17;;;5.57;;
12306;SDS011;6216;51.146;7.008;2022-07-21T03:08:36;6.30;;;5.73;;
12306;SDS011;6216;51.146;7.008;2022-07-21T03:11:03;6.23;;;5.63;;
12306;SDS011;6216;51.146;7.008;2022-07-21T03:13:32;7.13;;;6.53;;
12306;SDS011;6216;51.146;7.008;2022-07-21T03:16:00;6.47;;;5.87;;
12306;SDS011;6216;51.146;7.008;2022-07-21T03:18:29;6.67;;;6.13;;
12306;SDS011;6216;51.146;7.008;2022-07-21T03:20:58;7.43;;;6.73;;
12306;SDS011;6216;51.146;7.008;2022-07-21T03:23:26;7.23;;;6.60;;
12306;SDS011;6216;51.146;7.008;2022-07-21T03:25:54;7.60;;;6.83;;
12306;SDS011;6216;51.146;7.008;2022-07-21T03:28:22;6.97;;;6.37;;
12306;SDS011;6216;51.146;7.008;2022-07-21T03:30:50;8.50;;;7.80;;
12306;SDS011;6216;51.146;7.008;2022-07-21T03:33:18;8.10;;;7.40;;
12306;SDS011;6216;51.146;7.008;2022-07-21T03:35:46;8.47;;;7.77;;
12306;SDS011;6216;51.146;7.008;2022-07-21T03:38:15;7.87;;;7.27;;
12306;SDS011;6216;51.146;7.008;2022-07-21T03:40:42;8.73;;;7.87;;
12306;SDS011;6216;51.146;7.008;2022-07-21T03:43:10;8.57;;;7.67;;
12306;SDS011;6216;51.146;7.008;2022-07-21T03:45:38;7.50;;;6.87;;
12306;SDS011;6216;51.146;7.008;2022-07-21T03:48:06;7.57;;;6.93;;
12306;SDS011;6216;51.146;7.008;2022-07-21T03:50:36;7.87;;;7.17;;
12306;SDS011;6216;51.146;7.008;2022-07-21T03:53:05;7.17;;;6.57;;
12306;SDS011;6216;51.146;7.008;2022-07-21T03:55:35;9.07;;;8.10;;
12306;SDS011;6216;51.146;7.008;2022-07-21T03:58:04;9.57;;;8.67;;
12306;SDS011;6216;51.146;7.008;2022-07-21T04:00:35;10.50;;;9.57;;
12306;SDS011;6216;51.146;7.008;2022-07-21T04:03:04;10.57;;;9.53;;
12306;SDS011;6216;51.146;7.008;2022-07-21T04:05:33;11.43;;;10.33;;
12306;SDS011;6216;51.146;7.008;2022-07-21T04:08:01;10.80;;;9.80;;
12306;SDS011;6216;51.146;7.008;2022-07-21T04:10:31;11.77;;;10.57;;
12306;SDS011;6216;51.146;7.008;2022-07-21T04:13:02;12.67;;;11.37;;
12306;SDS011;6216;51.146;7.008;2022-07-21T04:15:32;12.37;;;11.20;;
12306;SDS011;6216;51.146;7.008;2022-07-21T04:18:01;12.37;;;11.27;;
12306;SDS011;6216;51.146;7.008;2022-07-21T04:20:29;12.43;;;11.43;;
12306;SDS011;6216;51.146;7.008;2022-07-21T04:22:57;16.60;;;15.10;;
12306;SDS011;6216;51.146;7.008;2022-07-21T04:25:25;16.50;;;14.90;;
12306;SDS011;6216;51.146;7.008;2022-07-21T04:27:54;16.50;;;15.00;;
12306;SDS011;6216;51.146;7.008;2022-07-21T04:30:23;18.50;;;16.63;;
12306;SDS011;6216;51.146;7.008;2022-07-21T04:32:51;19.00;;;17.10;;
12306;SDS011;6216;51.146;7.008;2022-07-21T04:35:19;19.07;;;17.20;;
12306;SDS011;6216;51.146;7.008;2022-07-21T04:37:47;19.13;;;17.33;;
12306;SDS011;6216;51.146;7.008;2022-07-21T04:40:16;19.00;;;17.40;;
12306;SDS011;6216;51.146;7.008;2022-07-21T04:42:44;20.53;;;18.53;;
12306;SDS011;6216;51.146;7.008;2022-07-21T04:45:12;18.93;;;17.13;;
12306;SDS011;6216;51.146;7.008;2022-07-21T04:47:44;20.07;;;18.07;;
12306;SDS011;6216;51.146;7.008;2022-07-21T04:50:13;22.03;;;19.97;;
12306;SDS011;6216;51.146;7.008;2022-07-21T04:52:42;20.57;;;18.60;;
12306;SDS011;6216;51.146;7.008;2022-07-21T04:55:10;21.30;;;19.20;;
12306;SDS011;6216;51.146;7.008;2022-07-21T04:57:39;20.87;;;18.87;;
12306;SDS011;6216;51.146;7.008;2022-07-21T05:00:09;22.47;;;20.37;;
12306;SDS011;6216;51.146;7.008;2022-07-21T05:02:39;22.23;;;19.73;;
12306;SDS011;6216;51.146;7.008;2022-07-21T05:05:09;21.00;;;18.93;;
12306;SDS011;6216;51.146;7.008;2022-07-21T05:07:38;18.80;;;16.93;;
12306;SDS011;6216;51.146;7.008;2022-07-21T05:10:06;22.20;;;20.00;;
12306;SDS011;6216;51.146;7.008;2022-07-21T05:12:35;20.53;;;18.40;;
12306;SDS011;6216;51.146;7.008;2022-07-21T05:15:04;19.67;;;17.93;;
12306;SDS011;6216;51.146;7.008;2022-07-21T05:17:33;21.00;;;18.83;;
12306;SDS011;6216;51.146;7.008;2022-07-21T05:20:01;19.57;;;17.77;;
12306;SDS011;6216;51.146;7.008;2022-07-21T05:22:31;21.60;;;19.40;;
12306;SDS011;6216;51.146;7.008;2022-07-21T05:24:59;20.43;;;18.63;;
12306;SDS011;6216;51.146;7.008;2022-07-21T05:27:27;18.40;;;16.70;;
12306;SDS011;6216;51.146;7.008;2022-07-21T05:29:54;17.50;;;15.93;;
12306;SDS011;6216;51.146;7.008;2022-07-21T05:32:22;17.67;;;15.87;;
12306;SDS011;6216;51.146;7.008;2022-07-21T05:34:53;19.30;;;17.30;;
12306;SDS011;6216;51.146;7.008;2022-07-21T05:37:20;17.30;;;15.80;;
12306;SDS011;6216;51.146;7.008;2022-07-21T05:39:50;18.47;;;16.77;;
12306;SDS011;6216;51.146;7.008;2022-07-21T05:42:20;17.40;;;15.70;;
12306;SDS011;6216;51.146;7.008;2022-07-21T05:44:53;15.90;;;14.50;;
12306;SDS011;6216;51.146;7.008;2022-07-21T05:47:25;15.60;;;14.27;;
12306;SDS011;6216;51.146;7.008;2022-07-21T05:49:54;15.97;;;14.37;;
12306;SDS011;6216;51.146;7.008;2022-07-21T05:52:22;14.63;;;13.30;;
12306;SDS011;6216;51.146;7.008;2022-07-21T05:54:51;13.80;;;12.50;;
12306;SDS011;6216;51.146;7.008;2022-07-21T05:57:23;15.30;;;13.90;;
12306;SDS011;6216;51.146;7.008;2022-07-21T05:59:51;13.73;;;12.47;;
12306;SDS011;6216;51.146;7.008;2022-07-21T06:02:19;13.90;;;12.60;;
12306;SDS011;6216;51.146;7.008;2022-07-21T06:04:47;17.77;;;13.53;;
12306;SDS011;6216;51.146;7.008;2022-07-21T06:07:16;15.73;;;12.30;;
12306;SDS011;6216;51.146;7.008;2022-07-21T06:09:44;13.20;;;11.83;;
12306;SDS011;6216;51.146;7.008;2022-07-21T06:12:13;11.37;;;10.43;;
12306;SDS011;6216;51.146;7.008;2022-07-21T06:14:41;11.33;;;10.17;;
12306;SDS011;6216;51.146;7.008;2022-07-21T06:17:08;11.00;;;10.00;;
12306;SDS011;6216;51.146;7.008;2022-07-21T06:19:36;9.50;;;8.37;;
12306;SDS011;6216;51.146;7.008;2022-07-21T06:22:04;9.37;;;8.40;;
12306;SDS011;6216;51.146;7.008;2022-07-21T06:24:32;9.83;;;8.90;;
12306;SDS011;6216;51.146;7.008;2022-07-21T06:27:00;11.23;;;8.60;;
12306;SDS011;6216;51.146;7.008;2022-07-21T06:29:32;8.83;;;8.13;;
12306;SDS011;6216;51.146;7.008;2022-07-21T06:32:00;9.27;;;8.37;;
12306;SDS011;6216;51.146;7.008;2022-07-21T06:34:28;9.43;;;7.70;;
12306;SDS011;6216;51.146;7.008;2022-07-21T06:36:56;9.33;;;8.43;;
12306;SDS011;6216;51.146;7.008;2022-07-21T06:39:24;9.53;;;8.07;;
12306;SDS011;6216;51.146;7.008;2022-07-21T06:41:52;9.73;;;8.90;;
12306;SDS011;6216;51.146;7.008;2022-07-21T06:44:20;9.27;;;8.43;;
12306;SDS011;6216;51.146;7.008;2022-07-21T06:46:52;9.30;;;8.30;;
12306;SDS011;6216;51.146;7.008;2022-07-21T06:49:21;9.03;;;8.13;;
12306;SDS011;6216;51.146;7.008;2022-07-21T06:51:49;9.10;;;8.20;;
12306;SDS011;6216;51.146;7.008;2022-07-21T06:54:17;9.63;;;7.47;;
12306;SDS011;6216;51.146;7.008;2022-07-21T06:56:45;8.63;;;7.73;;
12306;SDS011;6216;51.146;7.008;2022-07-21T06:59:12;8.73;;;7.90;;
12306;SDS011;6216;51.146;7.008;2022-07-21T07:01:40;8.10;;;7.40;;
12306;SDS011;6216;51.146;7.008;2022-07-21T07:04:11;9.13;;;8.40;;
12306;SDS011;6216;51.146;7.008;2022-07-21T07:06:39;11.30;;;7.63;;
12306;SDS011;6216;51.146;7.008;2022-07-21T07:09:07;11.37;;;8.03;;
12306;SDS011;6216;51.146;7.008;2022-07-21T07:11:35;8.53;;;7.83;;
12306;SDS011;6216;51.146;7.008;2022-07-21T07:14:02;8.53;;;7.63;;
12306;SDS011;6216;51.146;7.008;2022-07-21T07:16:43;7.83;;;7.07;;
12306;SDS011;6216;51.146;7.008;2022-07-21T07:19:12;8.93;;;8.00;;
12306;SDS011;6216;51.146;7.008;2022-07-21T07:21:40;10.93;;;7.90;;
12306;SDS011;6216;51.146;7.008;2022-07-21T07:24:08;9.03;;;7.70;;
12306;SDS011;6216;51.146;7.008;2022-07-21T07:26:37;8.67;;;7.70;;
12306;SDS011;6216;51.146;7.008;2022-07-21T07:29:05;8.63;;;7.30;;
12306;SDS011;6216;51.146;7.008;2022-07-21T07:31:33;8.20;;;7.40;;
12306;SDS011;6216;51.146;7.008;2022-07-21T07:34:01;8.27;;;6.33;;
12306;SDS011;6216;51.146;7.008;2022-07-21T07:36:31;5.73;;;5.23;;
12306;SDS011;6216;51.146;7.008;2022-07-21T07:38:59;6.07;;;5.47;;
12306;SDS011;6216;51.146;7.008;2022-07-21T07:41:27;5.90;;;5.30;;
12306;SDS011;6216;51.146;7.008;2022-07-21T07:43:57;6.17;;;5.10;;
12306;SDS011;6216;51.146;7.008;2022-07-21T07:46:26;5.63;;;5.13;;
12306;SDS011;6216;51.146;7.008;2022-07-21T07:48:54;6.30;;;5.20;;
12306;SDS011;6216;51.146;7.008;2022-07-21T07:51:30;4.70;;;4.30;;
12306;SDS011;6216;51.146;7.008;2022-07-21T07:53:58;4.67;;;4.27;;
12306;SDS011;6216;51.146;7.008;2022-07-21T07:56:26;5.00;;;4.50;;
12306;SDS011;6216;51.146;7.008;2022-07-21T07:58:54;5.00;;;4.53;;
12306;SDS011;6216;51.146;7.008;2022-07-21T08:01:24;6.63;;;4.03;;
12306;SDS011;6216;51.146;7.008;2022-07-21T08:03:52;4.37;;;3.97;;
12306;SDS011;6216;51.146;7.008;2022-07-21T08:06:20;4.33;;;3.70;;
12306;SDS011;6216;51.146;7.008;2022-07-21T08:08:49;5.93;;;3.60;;
12306;SDS011;6216;51.146;7.008;2022-07-21T08:11:17;5.83;;;3.80;;
12306;SDS011;6216;51.146;7.008;2022-07-21T08:13:45;4.37;;;3.43;;
12306;SDS011;6216;51.146;7.008;2022-07-21T08:16:13;4.90;;;4.40;;
12306;SDS011;6216;51.146;7.008;2022-07-21T08:18:42;4.67;;;4.27;;
12306;SDS011;6216;51.146;7.008;2022-07-21T08:21:14;4.40;;;4.10;;
12306;SDS011;6216;51.146;7.008;2022-07-21T08:23:42;6.47;;;5.27;;
12306;SDS011;6216;51.146;7.008;2022-07-21T08:26:11;5.40;;;4.60;;
12306;SDS011;6216;51.146;7.008;2022-07-21T08:28:39;5.93;;;4.60;;
12306;SDS011;6216;51.146;7.008;2022-07-21T08:31:07;5.23;;;4.73;;
12306;SDS011;6216;51.146;7.008;2022-07-21T08:33:35;6.17;;;4.53;;
12306;SDS011;6216;51.146;7.008;2022-07-21T08:36:03;4.87;;;4.23;;
12306;SDS011;6216;51.146;7.008;2022-07-21T08:38:31;5.60;;;4.40;;
12306;SDS011;6216;51.146;7.008;2022-07-21T08:40:59;4.10;;;3.70;;
12306;SDS011;6216;51.146;7.008;2022-07-21T08:43:28;4.70;;;4.30;;
12306;SDS011;6216;51.146;7.008;2022-07-21T08:45:57;4.93;;;4.50;;
12306;SDS011;6216;51.146;7.008;2022-07-21T08:48:26;5.13;;;4.60;;
12306;SDS011;6216;51.146;7.008;2022-07-21T08:50:55;5.30;;;4.90;;
12306;SDS011;6216;51.146;7.008;2022-07-21T08:53:24;4.97;;;4.57;;
12306;SDS011;6216;51.146;7.008;2022-07-21T08:55:52;4.83;;;4.27;;
12306;SDS011;6216;51.146;7.008;2022-07-21T08:58:20;4.77;;;4.37;;
12306;SDS011;6216;51.146;7.008;2022-07-21T09:00:49;4.60;;;4.17;;
12306;SDS011;6216;51.146;7.008;2022-07-21T09:03:18;5.93;;;4.70;;
12306;SDS011;6216;51.146;7.008;2022-07-21T09:06:01;4.83;;;4.27;;
12306;SDS011;6216;51.146;7.008;2022-07-21T09:08:34;5.13;;;4.63;;
12306;SDS011;6216;51.146;7.008;2022-07-21T09:11:07;6.73;;;5.30;;
12306;SDS011;6216;51.146;7.008;2022-07-21T09:13:40;6.13;;;4.73;;
12306;SDS011;6216;51.146;7.008;2022-07-21T09:16:10;10.03;;;5.53;;
12306;SDS011;6216;51.146;7.008;2022-07-21T09:18:46;5.20;;;4.70;;
12306;SDS011;6216;51.146;7.008;2022-07-21T09:21:16;8.00;;;5.93;;
12306;SDS011;6216;51.146;7.008;2022-07-21T09:23:45;7.73;;;5.73;;
12306;SDS011;6216;51.146;7.008;2022-07-21T09:26:13;8.43;;;5.97;;
12306;SDS011;6216;51.146;7.008;2022-07-21T09:28:42;8.53;;;5.30;;
12306;SDS011;6216;51.146;7.008;2022-07-21T09:31:11;6.00;;;4.87;;
12306;SDS011;6216;51.146;7.008;2022-07-21T09:33:40;5.93;;;5.23;;
12306;SDS011;6216;51.146;7.008;2022-07-21T09:36:10;8.00;;;4.73;;
12306;SDS011;6216;51.146;7.008;2022-07-21T09:38:41;5.67;;;4.87;;
12306;SDS011;6216;51.146;7.008;2022-07-21T09:41:11;6.17;;;5.57;;
12306;SDS011;6216;51.146;7.008;2022-07-21T09:43:42;6.93;;;5.00;;
12306;SDS011;6216;51.146;7.008;2022-07-21T09:46:13;7.33;;;5.30;;
12306;SDS011;6216;51.146;7.008;2022-07-21T09:48:43;6.63;;;5.20;;
12306;SDS011;6216;51.146;7.008;2022-07-21T09:51:34;7.10;;;5.20;;
12306;SDS011;6216;51.146;7.008;2022-07-21T09:54:08;5.33;;;4.83;;
12306;SDS011;6216;51.146;7.008;2022-07-21T09:56:37;5.00;;;4.50;;
12306;SDS011;6216;51.146;7.008;2022-07-21T09:59:07;6.00;;;4.53;;
12306;SDS011;6216;51.146;7.008;2022-07-21T10:01:37;5.00;;;3.87;;
12306;SDS011;6216;51.146;7.008;2022-07-21T10:04:06;4.23;;;3.87;;
12306;SDS011;6216;51.146;7.008;2022-07-21T10:06:35;6.27;;;3.90;;
12306;SDS011;6216;51.146;7.008;2022-07-21T10:09:07;4.27;;;3.43;;
12306;SDS011;6216;51.146;7.008;2022-07-21T10:11:38;6.67;;;3.87;;
12306;SDS011;6216;51.146;7.008;2022-07-21T10:14:08;5.53;;;3.63;;
12306;SDS011;6216;51.146;7.008;2022-07-21T10:16:38;4.57;;;3.43;;
12306;SDS011;6216;51.146;7.008;2022-07-21T10:19:18;7.13;;;3.97;;
12306;SDS011;6216;51.146;7.008;2022-07-21T10:21:52;6.57;;;3.87;;
12306;SDS011;6216;51.146;7.008;2022-07-21T10:24:26;5.13;;;3.90;;
12306;SDS011;6216;51.146;7.008;2022-07-21T10:27:02;4.90;;;4.17;;
12306;SDS011;6216;51.146;7.008;2022-07-21T10:29:48;4.37;;;3.97;;
12306;SDS011;6216;51.146;7.008;2022-07-21T10:32:28;6.40;;;3.90;;
12306;SDS011;6216;51.146;7.008;2022-07-21T10:35:00;7.20;;;3.57;;
12306;SDS011;6216;51.146;7.008;2022-07-21T10:37:43;4.77;;;3.83;;
12306;SDS011;6216;51.146;7.008;2022-07-21T10:49:06;8.30;;;4.60;;
12306;SDS011;6216;51.146;7.008;2022-07-21T10:51:36;5.13;;;4.63;;
12306;SDS011;6216;51.146;7.008;2022-07-21T10:54:21;5.73;;;4.80;;
12306;SDS011;6216;51.146;7.008;2022-07-21T11:02:50;6.20;;;5.60;;
12306;SDS011;6216;51.146;7.008;2022-07-21T11:05:22;6.13;;;5.33;;
12306;SDS011;6216;51.146;7.008;2022-07-21T11:08:10;6.57;;;5.40;;
12306;SDS011;6216;51.146;7.008;2022-07-21T11:10:40;6.90;;;5.70;;
12306;SDS011;6216;51.146;7.008;2022-07-21T11:13:09;7.90;;;5.43;;
12306;SDS011;6216;51.146;7.008;2022-07-21T11:15:48;6.33;;;5.77;;
12306;SDS011;6216;51.146;7.008;2022-07-21T11:18:26;9.13;;;6.30;;
12306;SDS011;6216;51.146;7.008;2022-07-21T11:21:10;8.03;;;6.57;;
12306;SDS011;6216;51.146;7.008;2022-07-21T11:23:41;8.17;;;6.83;;
12306;SDS011;6216;51.146;7.008;2022-07-21T11:26:12;9.47;;;7.60;;
12306;SDS011;6216;51.146;7.008;2022-07-21T11:28:42;10.33;;;7.77;;
12306;SDS011;6216;51.146;7.008;2022-07-21T11:31:13;10.60;;;7.03;;
12306;SDS011;6216;51.146;7.008;2022-07-21T11:33:44;8.70;;;7.83;;
12306;SDS011;6216;51.146;7.008;2022-07-21T11:36:24;8.63;;;7.83;;
12306;SDS011;6216;51.146;7.008;2022-07-21T11:38:57;10.30;;;8.43;;
12306;SDS011;6216;51.146;7.008;2022-07-21T11:41:26;9.57;;;7.97;;
12306;SDS011;6216;51.146;7.008;2022-07-21T11:43:54;10.10;;;8.03;;
12306;SDS011;6216;51.146;7.008;2022-07-21T11:46:22;8.80;;;7.87;;
12306;SDS011;6216;51.146;7.008;2022-07-21T11:48:59;8.97;;;8.07;;
12306;SDS011;6216;51.146;7.008;2022-07-21T11:51:30;8.97;;;8.13;;
12306;SDS011;6216;51.146;7.008;2022-07-21T11:53:59;8.53;;;7.77;;
12306;SDS011;6216;51.146;7.008;2022-07-21T11:56:27;8.73;;;7.90;;
12306;SDS011;6216;51.146;7.008;2022-07-21T11:59:07;9.70;;;8.13;;
12306;SDS011;6216;51.146;7.008;2022-07-21T12:04:27;9.40;;;8.47;;
12306;SDS011;6216;51.146;7.008;2022-07-21T12:06:59;12.03;;;8.60;;
12306;SDS011;6216;51.146;7.008;2022-07-21T12:09:28;8.80;;;7.87;;
12306;SDS011;6216;51.146;7.008;2022-07-21T12:11:59;11.03;;;8.70;;
12306;SDS011;6216;51.146;7.008;2022-07-21T12:14:44;10.47;;;8.97;;
12306;SDS011;6216;51.146;7.008;2022-07-21T12:17:14;9.77;;;8.80;;
12306;SDS011;6216;51.146;7.008;2022-07-21T12:19:44;11.03;;;8.83;;
12306;SDS011;6216;51.146;7.008;2022-07-21T12:22:13;9.27;;;8.37;;
12306;SDS011;6216;51.146;7.008;2022-07-21T12:24:50;7.30;;;6.67;;
12306;SDS011;6216;51.146;7.008;2022-07-21T12:27:19;6.33;;;5.80;;
12306;SDS011;6216;51.146;7.008;2022-07-21T12:29:48;6.03;;;5.43;;
12306;SDS011;6216;51.146;7.008;2022-07-21T12:35:23;7.03;;;6.20;;
12306;SDS011;6216;51.146;7.008;2022-07-21T12:38:10;6.63;;;6.13;;
12306;SDS011;6216;51.146;7.008;2022-07-21T12:40:39;6.93;;;6.33;;
12306;SDS011;6216;51.146;7.008;2022-07-21T12:43:28;6.67;;;6.07;;
12306;SDS011;6216;51.146;7.008;2022-07-21T12:45:58;7.13;;;6.60;;
12306;SDS011;6216;51.146;7.008;2022-07-21T12:48:27;6.87;;;6.37;;
12306;SDS011;6216;51.146;7.008;2022-07-21T12:50:58;7.87;;;7.20;;
12306;SDS011;6216;51.146;7.008;2022-07-21T12:53:29;7.37;;;6.63;;
12306;SDS011;6216;51.146;7.008;2022-07-21T12:55:58;6.83;;;6.33;;
12306;SDS011;6216;51.146;7.008;2022-07-21T12:58:26;6.40;;;5.90;;
12306;SDS011;6216;51.146;7.008;2022-07-21T13:00:54;6.37;;;5.90;;
12306;SDS011;6216;51.146;7.008;2022-07-21T13:03:23;6.30;;;5.73;;
12306;SDS011;6216;51.146;7.008;2022-07-21T13:05:56;7.30;;;6.10;;
12306;SDS011;6216;51.146;7.008;2022-07-21T13:08:25;6.17;;;5.57;;
12306;SDS011;6216;51.146;7.008;2022-07-21T13:10:54;6.63;;;6.00;;
12306;SDS011;6216;51.146;7.008;2022-07-21T13:13:23;6.60;;;5.93;;
12306;SDS011;6216;51.146;7.008;2022-07-21T13:15:51;5.57;;;5.07;;
12306;SDS011;6216;51.146;7.008;2022-07-21T13:18:20;4.80;;;4.50;;
12306;SDS011;6216;51.146;7.008;2022-07-21T13:20:48;5.83;;;5.37;;
12306;SDS011;6216;51.146;7.008;2022-07-21T13:23:17;5.37;;;4.97;;
12306;SDS011;6216;51.146;7.008;2022-07-21T13:25:45;4.27;;;3.90;;
12306;SDS011;6216;51.146;7.008;2022-07-21T13:28:30;3.70;;;3.40;;
12306;SDS011;6216;51.146;7.008;2022-07-21T13:31:00;3.13;;;2.90;;
12306;SDS011;6216;51.146;7.008;2022-07-21T13:33:28;4.17;;;2.97;;
12306;SDS011;6216;51.146;7.008;2022-07-21T13:35:56;4.10;;;3.20;;
12306;SDS011;6216;51.146;7.008;2022-07-21T13:38:24;3.90;;;3.60;;
12306;SDS011;6216;51.146;7.008;2022-07-21T13:40:52;4.43;;;4.03;;
12306;SDS011;6216;51.146;7.008;2022-07-21T13:43:41;4.57;;;4.27;;
12306;SDS011;6216;51.146;7.008;2022-07-21T13:46:10;5.23;;;4.83;;
12306;SDS011;6216;51.146;7.008;2022-07-21T13:48:38;5.57;;;5.07;;
12306;SDS011;6216;51.146;7.008;2022-07-21T13:51:10;5.50;;;5.10;;
12306;SDS011;6216;51.146;7.008;2022-07-21T13:53:38;6.97;;;6.40;;
12306;SDS011;6216;51.146;7.008;2022-07-21T13:56:07;6.80;;;6.20;;
12306;SDS011;6216;51.146;7.008;2022-07-21T13:58:35;6.83;;;6.33;;
12306;SDS011;6216;51.146;7.008;2022-07-21T14:01:05;5.93;;;5.50;;
12306;SDS011;6216;51.146;7.008;2022-07-21T14:03:34;6.03;;;5.63;;
12306;SDS011;6216;51.146;7.008;2022-07-21T14:06:03;8.07;;;6.37;;
12306;SDS011;6216;51.146;7.008;2022-07-21T14:08:31;7.90;;;7.30;;
12306;SDS011;6216;51.146;7.008;2022-07-21T14:10:59;8.23;;;7.50;;
12306;SDS011;6216;51.146;7.008;2022-07-21T14:13:27;7.30;;;6.67;;
12306;SDS011;6216;51.146;7.008;2022-07-21T14:15:54;6.87;;;6.40;;
12306;SDS011;6216;51.146;7.008;2022-07-21T14:18:24;8.00;;;7.30;;
12306;SDS011;6216;51.146;7.008;2022-07-21T14:20:52;9.17;;;8.27;;
12306;SDS011;6216;51.146;7.008;2022-07-21T14:23:20;8.50;;;7.80;;
12306;SDS011;6216;51.146;7.008;2022-07-21T14:25:49;8.87;;;7.97;;
12306;SDS011;6216;51.146;7.008;2022-07-21T14:28:18;8.60;;;7.70;;
12306;SDS011;6216;51.146;7.008;2022-07-21T14:30:46;9.00;;;8.20;;
12306;SDS011;6216;51.146;7.008;2022-07-21T14:33:14;9.57;;;8.77;;
12306;SDS011;6216;51.146;7.008;2022-07-21T14:35:44;9.23;;;8.43;;
12306;SDS011;6216;51.146;7.008;2022-07-21T14:38:12;9.57;;;8.77;;
12306;SDS011;6216;51.146;7.008;2022-07-21T14:40:40;11.43;;;10.27;;
12306;SDS011;6216;51.146;7.008;2022-07-21T14:43:08;11.23;;;10.10;;
12306;SDS011;6216;51.146;7.008;2022-07-21T14:45:36;11.00;;;9.90;;
12306;SDS011;6216;51.146;7.008;2022-07-21T14:48:04;11.10;;;10.13;;
12306;SDS011;6216;51.146;7.008;2022-07-21T14:50:34;10.50;;;9.67;;
12306;SDS011;6216;51.146;7.008;2022-07-21T14:53:06;12.57;;;10.87;;
12306;SDS011;6216;51.146;7.008;2022-07-21T14:55:36;11.20;;;10.20;;
12306;SDS011;6216;51.146;7.008;2022-07-21T14:58:10;11.70;;;10.53;;
12306;SDS011;6216;51.146;7.008;2022-07-21T15:00:38;11.67;;;10.67;;
12306;SDS011;6216;51.146;7.008;2022-07-21T15:03:08;11.73;;;10.67;;
12306;SDS011;6216;51.146;7.008;2022-07-21T15:05:36;11.03;;;9.97;;
12306;SDS011;6216;51.146;7.008;2022-07-21T15:08:04;10.40;;;9.50;;
12306;SDS011;6216;51.146;7.008;2022-07-21T15:10:40;9.87;;;8.97;;
12306;SDS011;6216;51.146;7.008;2022-07-21T15:13:09;8.87;;;8.00;;
12306;SDS011;6216;51.146;7.008;2022-07-21T15:15:36;8.90;;;7.97;;
12306;SDS011;6216;51.146;7.008;2022-07-21T15:18:05;8.93;;;7.00;;
12306;SDS011;6216;51.146;7.008;2022-07-21T15:20:32;8.27;;;6.93;;
12306;SDS011;6216;51.146;7.008;2022-07-21T15:23:00;7.43;;;6.73;;
12306;SDS011;6216;51.146;7.008;2022-07-21T15:25:28;7.57;;;6.47;;
12306;SDS011;6216;51.146;7.008;2022-07-21T15:27:57;7.53;;;6.77;;
12306;SDS011;6216;51.146;7.008;2022-07-21T15:30:25;7.73;;;6.90;;